• Join FlightAware (Why Join?)
  • Login
  • US Flag 
05:22AM EDT


 

Airport Tracker/Info


-or-


 

Live Flight TrackerFlight Track Log ✈ DAL1214 ✈ 22-Apr-2013 ✈ KATL - KMHT

Flight Track Log - Related Links

Times and Time Zones

All times are in EDT time to prevent confusion due to time zone crossing. See the DAL1214 flight status page for this flight to view local times or setup timezone preferences in your user account.

Time Position Orientation Groundspeed Altitude Reporting Facility
EDT Latitude Longitude Course Direction KTS MPH feet Rate Location/Type
06:27PM 33.6478 -84.3656 11° North 437 503 2,600  Level Atlanta Center
06:28PM 33.6647 -84.2783 77° East 366 421 5,000 2,640 Climbing Atlanta Center
06:29PM 33.7000 -84.1833 66° East 297 342 8,200 2,400 Climbing Atlanta TRACON
06:30PM 33.9553 -84.2667 North  Level FlightAware Approximate
06:30PM 33.7667 -84.1833 360° North 303 349 10,000  Level Atlanta TRACON
06:31PM 34.0843 -84.2667 North  Level FlightAware Approximate
06:32PM 34.2133 -84.2667 North  Level FlightAware Approximate
06:32PM 33.9486 -84.2667 339° North 360 414 14,200  Level Atlanta Center
06:33PM 34.3411 -84.2529 11° North  Level FlightAware Approximate
06:33PM 34.0528 -84.2744 356° North 360 414 16,200  Level Atlanta Center
06:34PM 34.1719 -84.2747 360° North 385 443 18,400 2,340 Climbing Atlanta Center
06:35PM 34.2844 -84.2778 359° North 405 466 20,900 1,680 Climbing Atlanta Center
06:36PM 34.4036 -84.2553 North 413 475 21,800 1,140 Climbing Atlanta Center
06:37PM 34.5247 -84.2253 12° North 437 503 23,200 1,620 Climbing Atlanta Center
06:38PM 34.6500 -84.1953 11° North 452 520 25,100 1,680 Climbing Atlanta Center
06:39PM 34.7606 -84.1703 11° North 452 520 26,600 3,900 Climbing Atlanta Center
06:40PM 34.8836 -84.1425 10° North 452 520 33,000 1,680 Climbing Atlanta Center
06:41PM 35.0067 -84.1122 11° North 447 514 30,000 -1,020 Descending Atlanta Center
06:42PM 35.1278 -84.0819 12° North 447 514 31,000 900 Climbing Atlanta Center
06:43PM 35.2489 -84.0539 11° North 447 514 31,900 660 Climbing Atlanta Center
06:44PM 35.3742 -84.0233 11° North 447 514 32,400 540 Climbing Atlanta Center
06:45PM 35.4992 -83.9928 11° North 447 514 33,000 300 Climbing Atlanta Center
06:46PM 35.6222 -83.9647 10° North 447 514 33,000  Level Atlanta Center
06:47PM 35.7494 -83.9314 12° North 452 520 33,000  Level Atlanta Center
06:48PM 35.8767 -83.9003 11° North 452 520 33,000  Level Atlanta Center
06:49PM 35.9956 -83.8411 22° Northeast 452 520 33,000  Level Atlanta Center
06:50PM 36.1081 -83.7664 28° Northeast 452 520 33,000  Level Atlanta Center
06:51PM 36.2225 -83.6939 27° Northeast 452 520 33,000  Level Atlanta Center
06:53PM 36.3761 -83.5939 28° Northeast 457 526 33,000  Level Indianapolis Center
06:54PM 36.4878 -83.5214 28° Northeast 454 522 33,000  Level Indianapolis Center
06:55PM 36.6158 -83.4417 27° Northeast 454 522 33,000  Level Indianapolis Center
06:56PM 36.7200 -83.3483 36° Northeast 457 526 33,000  Level Indianapolis Center
06:57PM 36.8233 -83.2508 37° Northeast 461 531 33,000  Level Indianapolis Center
06:58PM 36.9267 -83.1528 37° Northeast 460 529 33,000  Level Indianapolis Center
06:59PM 37.0317 -83.0539 37° Northeast 463 533 33,000  Level Indianapolis Center
07:00PM 37.1533 -82.9364 38° Northeast 464 534 33,000  Level Indianapolis Center
07:01PM 37.2561 -82.8378 37° Northeast 462 532 33,000  Level Indianapolis Center
07:02PM 37.3592 -82.7392 37° Northeast 464 534 33,000  Level Indianapolis Center
07:03PM 37.4625 -82.6397 37° Northeast 466 536 33,000  Level Indianapolis Center
07:04PM 37.5664 -82.5397 37° Northeast 467 537 33,000  Level Indianapolis Center
07:05PM 37.6689 -82.4394 38° Northeast 466 536 33,000  Level Indianapolis Center
07:06PM 37.7728 -82.3386 37° Northeast 467 537 33,000  Level Indianapolis Center
07:07PM 37.8922 -82.2208 38° Northeast 466 536 33,000  Level Indianapolis Center
07:08PM 37.9831 -82.1319 38° Northeast 468 539 33,000  Level Indianapolis Center
07:09PM 38.0875 -82.0286 38° Northeast 475 547 33,000  Level Indianapolis Center
07:10PM 38.2114 -81.9061 38° Northeast 471 542 33,000  Level Indianapolis Center
07:11PM 38.3156 -81.8028 38° Northeast 474 545 33,000  Level Indianapolis Center
07:12PM 38.4086 -81.6853 45° Northeast 476 548 33,000  Level Indianapolis Center
07:13PM 38.4961 -81.5603 48° Northeast 476 548 33,000  Level Indianapolis Center
07:14PM 38.5825 -81.4356 48° Northeast 479 551 33,000  Level Indianapolis Center
07:15PM 38.6867 -81.2878 48° Northeast 477 549 33,000  Level Indianapolis Center
07:16PM 38.7739 -81.1611 49° Northeast 478 550 33,000  Level Indianapolis Center
07:17PM 38.8614 -81.0342 48° Northeast 478 550 33,000  Level Indianapolis Center
07:18PM 38.9514 -80.9058 48° Northeast 484 557 33,000  Level Indianapolis Center
07:19PM 39.0381 -80.7775 49° Northeast 478 550 33,000  Level Indianapolis Center
07:20PM 39.1292 -80.6522 47° Northeast 479 551 33,000  Level Indianapolis Center
07:21PM 39.2369 -80.5011 47° Northeast 478 550 33,000  Level Indianapolis Center
07:22PM 39.3278 -80.3739 47° Northeast 481 554 33,000  Level Indianapolis Center
07:23PM 39.3936 -80.2875 45° Northeast 474 545 33,000  Level Cleveland Center
07:24PM 39.4828 -80.1608 48° Northeast 474 545 33,000  Level Cleveland Center
07:25PM 39.5739 -80.0283 48° Northeast 474 545 33,000  Level Cleveland Center
07:26PM 39.6628 -79.8981 48° Northeast 479 551 33,000  Level Cleveland Center
07:27PM 39.7517 -79.7678 48° Northeast 479 551 33,000  Level Cleveland Center
07:28PM 39.8422 -79.6342 49° Northeast 479 551 33,000  Level Cleveland Center
07:29PM 39.9328 -79.5028 48° Northeast 484 557 33,000  Level Cleveland Center
07:30PM 40.0211 -79.3686 49° Northeast 489 563 33,000  Level Cleveland Center
07:31PM 40.1072 -79.2314 51° Northeast 489 563 33,000  Level Cleveland Center
07:32PM 40.2014 -79.0936 48° Northeast 489 563 33,000  Level Cleveland Center
07:33PM 40.2911 -78.9581 49° Northeast 494 568 33,000  Level Cleveland Center
07:34PM 40.3808 -78.8169 50° Northeast 494 568 33,000  Level Cleveland Center
07:35PM 40.4744 -78.6781 48° Northeast 494 568 33,000  Level Cleveland Center
07:36PM 40.5639 -78.5386 50° Northeast 494 568 33,000  Level Cleveland Center
07:37PM 40.6550 -78.3992 49° Northeast 494 568 33,000  Level Cleveland Center
07:39PM 40.8308 -78.1244 50° Northeast 498 573 33,000  Level New York Center
07:40PM 40.9192 -77.9775 51° Northeast 498 573 33,000  Level New York Center
07:41PM 40.9911 -77.8200 59° Northeast 498 573 33,000  Level New York Center
07:42PM 41.0631 -77.6622 59° Northeast 493 567 33,000  Level New York Center
07:43PM 41.1350 -77.4986 60° Northeast 493 567 33,000  Level New York Center
07:44PM 41.2136 -77.3217 59° Northeast 498 573 33,000  Level New York Center
07:45PM 41.2872 -77.1547 60° Northeast 508 585 33,000  Level New York Center
07:46PM 41.3564 -76.9900 61° Northeast 503 579 33,000  Level New York Center
07:47PM 41.4317 -76.8253 59° Northeast 508 585 33,000  Level New York Center
07:48PM 41.4906 -76.6867 60° Northeast 514 592 33,000  Level New York Center
07:49PM 41.5706 -76.4994 60° Northeast 514 592 33,000  Level New York Center
07:50PM 41.6414 -76.3278 61° Northeast 526 605 33,000  Level New York Center
07:52PM 41.7769 -76.0147 60° Northeast 545 627 33,000  Level Boston Center
07:53PM 41.8492 -75.8406 61° Northeast 533 613 33,000  Level Boston Center
07:54PM 41.9208 -75.6658 61° Northeast 533 613 33,000  Level Boston Center
07:55PM 41.9925 -75.4878 62° Northeast 533 613 33,000  Level Boston Center
07:56PM 42.0658 -75.3150 60° Northeast 528 608 33,000  Level Boston Center
07:57PM 42.1514 -75.1453 56° Northeast 533 613 33,000  Level Boston Center
07:58PM 42.2492 -75.0656 31° Northeast 512 589 33,000  Level Boston Center
07:59PM 42.4081 -74.9569 27° Northeast 521 600 33,000 -480 Level Boston Center
08:00PM 42.5392 -74.8606 28° Northeast 521 600 32,100 -900 Descending Boston Center
08:01PM 42.6425 -74.7122 47° Northeast 521 600 31,300 -1,020 Descending Boston Center
08:02PM 42.6792 -74.5328 74° East 482 555 30,100 -1,200 Descending Boston Center
08:03PM 42.6969 -74.3497 82° East 476 548 29,000 -1,500 Descending Boston Center
08:04PM 42.7144 -74.1722 82° East 476 548 27,200 -2,160 Descending Boston Center
08:05PM 42.7294 -74.0003 83° East 462 532 24,700 -1,920 Descending Boston Center
08:06PM 42.7442 -73.8367 83° East 443 510 23,400 -1,380 Descending Boston Center
08:07PM 42.7544 -73.6617 85° East 438 504 22,000 -1,320 Descending Boston Center
08:08PM 42.7603 -73.5006 87° East 433 498 20,800 -1,140 Descending Boston Center
08:09PM 42.7678 -73.3450 86° East 417 480 19,800 -840 Descending Boston Center
08:10PM 42.7708 -73.2094 88° East 411 473 19,200 -420 Descending Boston Center
08:11PM 42.7739 -73.0369 89° East 406 467 19,000 -120 Descending Boston Center
08:12PM 42.7808 -72.9011 86° East 401 461 19,000 -120 Level Boston Center
08:13PM 42.7897 -72.7483 85° East 401 461 18,800 -840 Descending Boston Center
08:14PM 42.7964 -72.5986 86° East 401 461 17,400 -1,920 Descending Boston Center
08:15PM 42.8025 -72.4569 87° East 395 455 15,000 -2,400 Descending Boston Center
08:16PM 42.8089 -72.3211 86° East 381 438 12,700 -2,100 Descending Boston Center
08:17PM 42.8128 -72.2136 87° East 358 412 10,900 -1,320 Descending Boston Center
08:18PM 42.8167 -72.0806 88° East 331 381 10,100 -1,140 Descending Boston Center
08:19PM 42.8267 -71.9533 84° East 283 326 8,700 -1,320 Descending Boston Center
08:20PM 42.8492 -71.8511 73° East 270 311 7,500 -1,380 Descending Boston Center
08:21PM 42.8714 -71.7631 71° East 256 295 6,000 -1,200 Descending Boston Center
08:22PM 42.9169 -71.6944 48° Northeast 240 276 5,100 -540 Descending Boston Center
08:23PM 42.9500 -71.6600 37° Northeast 225 259 5,000  Descending Boston Center
08:24PM 43.0228 -71.6392 12° North 201 231 5,100  Climbing Boston Center
08:25PM 43.0647 -71.6700 332° Northwest 208 239 5,000 -480 Descending Boston Center
08:26PM 43.1314 -71.6492 13° North 185 213 4,200 -900 Descending Boston Center
08:27PM 43.1558 -71.5947 58° Northeast 164 189 3,200 -840 Descending Boston Center
08:27PM 43.1500 -71.5667 106° East 160 184 3,100 -300 Descending KA90
08:28PM 43.1167 -71.5333 144° Southeast 159 183 2,800 -600 Descending KA90
08:29PM 43.0886 -71.5275 171° South 142 163 2,200 -480 Descending Boston Center
08:30PM 43.0489 -71.5025 155° Southeast 158 182 2,100 -120 Descending Boston Center